Date,TemperatureHighF,TemperatureAvgF,TemperatureLowF,DewpointHighF,DewpointAvgF,DewpointLowF,HumidityHigh,HumidityAvg,HumidityLow,PressureMaxIn,PressureMinIn,WindSpeedMaxMPH,WindSpeedAvgMPH,GustSpeedMaxMPH,PrecipitationSumIn
2013-4-3,38.8,29.0,26.6,14.4,6.4,-99.9,55,44,27,30.32,30.22,14,-43,14,0.00
2013-4-4,50.5,35.4,21.4,19.4,13.6,8.6,68,44,22,30.27,29.85,11,4,11,0.00
2013-4-5,46.6,38.0,28.9,27.9,19.4,8.4,61,47,34,30.09,29.82,17,5,17,0.05
2013-4-6,54.9,38.6,18.3,23.5,13.8,9.9,75,40,18,30.23,29.92,11,3,12,0.00
2013-4-7,65.1,53.6,42.1,43.5,31.6,13.6,76,46,22,29.98,29.65,26,11,27,0.28
2013-4-8,66.6,48.7,30.0,50.4,36.7,25.7,88,66,36,30.03,29.68,15,3,15,0.06
2013-4-9,65.5,49.8,41.7,49.3,42.9,38.7,99,79,44,30.06,29.71,24,6,24,1.03
2013-4-10,48.2,43.6,39.2,47.7,42.8,37.9,99,97,92,29.95,29.77,14,5,14,1.76
2013-4-11,39.2,34.8,32.2,37.9,30.8,-99.9,95,86,72,30.02,29.80,19,4,19,0.60
2013-4-12,54.5,38.8,33.3,50.9,36.7,30.6,98,92,85,29.80,29.41,22,10,22,0.64
2013-4-13,43.7,39.2,36.7,36.3,34.1,31.6,87,82,69,29.87,29.71,22,12,24,0.01
2013-4-14,50.0,41.0,34.5,32.2,28.3,24.4,82,62,43,30.03,29.87,14,6,16,0.00
2013-4-15,78.6,57.6,37.4,47.8,39.8,28.0,72,54,31,30.00,29.91,17,6,17,0.00
2013-4-16,64.4,55.9,43.5,56.5,49.2,43.0,99,80,56,30.09,29.87,19,8,23,0.20
2013-4-17,62.1,48.8,33.8,43.9,34.7,30.2,98,61,35,30.25,30.03,13,4,14,0.00
2013-4-18,84.4,65.5,45.9,60.4,49.4,32.0,66,57,43,30.06,29.61,24,6,24,0.05
2013-4-19,71.1,58.7,43.0,57.6,47.8,32.4,76,67,56,29.65,29.32,1,0,2,0.00
2013-4-20,40.3,38.9,37.4,27.7,24.8,21.7,64,57,48,30.18,30.06,0,0,0,0.00
2013-4-21,52.0,44.7,30.2,32.0,25.8,19.4,66,48,36,30.51,30.39,4,0,4,0.00
2013-4-22,65.7,48.8,33.6,33.3,24.7,17.2,61,41,22,30.40,30.20,0,0,0,0.00
2013-4-23,71.1,60.1,42.4,39.6,34.9,27.3,57,40,27,30.17,29.91,0,0,0,0.00
2013-4-25,53.6,49.6,47.7,38.1,36.9,32.7,69,62,45,30.15,30.11,1,0,2,0.22
2013-4-26,59.9,48.1,36.1,38.1,30.7,23.5,84,53,30,30.41,30.25,11,4,12,0.69
2013-4-27,74.7,54.0,32.9,41.7,31.3,-11.9,79,47,10,30.37,30.18,11,4,13,0.00
2013-4-28,74.3,59.1,43.7,49.1,40.1,27.1,75,54,18,30.18,29.97,23,9,24,0.05
2013-4-29,64.9,59.1,52.0,52.3,49.4,45.1,80,70,62,30.03,29.93,14,6,17,0.06
2013-4-30,79.2,64.8,39.4,55.4,51.6,-5.8,85,64,14,30.20,23.31,47,7,47,0.00
2013-5-1,81.5,66.3,40.5,56.1,48.8,-11.9,72,55,10,30.33,30.20,17,6,18,0.00
2013-5-2,76.6,63.6,49.3,44.2,39.3,34.0,67,43,28,30.32,30.26,17,6,17,0.00
2013-5-3,80.1,69.1,59.5,48.4,46.3,42.1,59,45,27,30.23,30.20,21,9,21,0.00
2013-5-4,59.5,58.3,57.6,46.0,45.0,43.3,64,61,55,30.22,30.22,5,4,8,0.00
2013-5-5,77.4,69.3,55.6,50.5,44.1,39.7,66,41,28,30.20,30.09,24,8,24,0.00
2013-5-6,77.2,61.4,41.5,48.7,36.6,22.6,83,46,14,30.16,30.05,16,4,16,0.00
2013-5-7,81.0,64.2,44.2,54.1,48.5,39.9,92,59,32,30.13,30.03,17,5,19,0.00
2013-5-8,73.6,62.5,51.8,59.5,53.9,47.5,97,75,54,30.05,29.94,11,4,12,0.08
2013-5-9,77.7,61.7,54.0,61.0,55.8,49.3,99,83,52,29.98,29.88,12,4,13,0.18
2013-5-10,54.3,54.0,53.1,49.6,49.3,48.6,85,84,83,29.95,29.95,4,2,4,0.00
2013-5-16,75.2,66.4,49.1,45.3,38.8,23.2,71,40,16,30.02,29.82,25,14,29,1.04
2013-5-17,68.5,54.3,36.7,46.0,40.3,34.9,99,63,36,30.21,30.01,13,4,14,0.00
2013-5-18,68.7,58.7,42.4,44.8,42.1,38.5,87,56,39,30.22,30.19,20,10,20,0.00
2013-5-19,86.5,77.1,68.2,62.1,59.9,56.1,73,57,39,30.07,29.99,14,6,16,0.00
2013-5-20,91.0,75.3,59.5,65.3,61.6,56.1,92,65,39,30.05,29.90,34,4,34,0.00
2013-5-21,88.3,73.8,61.3,68.9,62.8,57.4,96,71,46,29.97,29.78,19,7,21,0.01
2013-5-22,89.6,73.5,58.6,66.2,61.6,58.3,99,70,42,29.83,29.69,21,8,22,0.01
2013-5-23,75.2,65.4,48.4,63.7,57.8,45.5,95,77,59,29.85,29.72,22,11,28,0.12
2013-5-24,52.7,49.7,45.0,36.7,35.5,34.2,70,58,50,30.19,30.14,23,13,24,0.20
2013-5-25,59.0,53.9,48.2,37.2,34.6,29.1,63,48,37,30.26,30.18,23,12,23,0.00
2013-5-26,65.1,56.1,38.5,37.0,29.9,23.9,87,40,22,30.24,30.19,24,9,24,0.00
2013-5-27,70.9,53.6,36.5,42.6,35.8,29.7,96,59,22,30.26,30.20,11,3,11,0.00
2013-6-8,66.4,60.6,56.5,57.2,55.3,52.7,99,83,70,30.09,29.94,14,7,14,3.94
2013-6-9,81.5,70.8,56.7,57.4,55.0,52.2,86,59,40,30.21,30.09,12,5,12,0.00
2013-6-10,63.3,62.9,62.2,56.1,55.5,55.0,80,77,75,30.12,30.07,8,6,8,0.00
2013-6-12,78.8,69.8,66.2,61.3,59.7,57.4,84,71,48,29.88,29.80,8,2,8,0.27
2013-6-14,67.5,61.0,55.8,59.5,57.2,54.7,96,88,76,30.03,29.99,5,2,5,0.00
2013-6-15,73.6,62.9,47.8,55.4,51.1,42.3,99,69,35,30.09,29.97,16,6,17,0.00
2013-6-16,79.0,67.5,61.7,66.2,59.8,54.1,95,77,53,29.97,29.74,24,9,24,0.17
2013-6-17,80.4,74.2,63.9,64.6,58.5,54.9,75,59,44,29.96,29.91,17,8,20,0.00
2013-6-18,71.2,64.7,51.6,55.2,49.5,43.2,92,60,38,30.05,29.94,17,7,17,0.00
2013-6-19,72.0,65.7,50.4,51.6,42.5,35.6,95,45,28,30.20,30.04,17,6,17,0.00
2013-6-20,79.3,70.4,53.2,53.2,48.6,41.2,88,49,33,30.26,30.23,13,5,14,0.00
2013-6-21,79.0,58.0,46.8,56.7,50.7,46.6,99,81,33,30.29,30.22,4,1,5,0.00
2013-7-6,85.5,83.3,80.2,71.2,68.8,66.2,72,62,55,30.18,30.14,11,6,11,0.00
2013-7-12,72.9,67.1,61.5,64.4,62.8,61.0,98,87,74,30.21,30.16,6,2,8,0.26
2013-7-13,87.3,71.7,57.4,69.1,64.4,57.0,99,80,49,30.28,30.18,16,5,17,0.00
2013-7-14,91.9,79.2,64.0,73.2,68.7,63.1,99,73,46,30.33,30.27,11,3,11,0.00
2013-7-15,93.9,84.1,69.1,77.0,69.1,57.4,98,64,33,30.34,30.28,13,4,13,0.00
2013-7-16,95.4,80.8,67.5,77.7,69.4,63.9,99,72,40,30.33,30.25,12,3,13,0.00
2013-7-17,92.7,83.6,75.6,79.2,75.6,70.9,98,78,50,30.27,30.14,17,7,21,0.00
2013-7-18,92.3,82.4,74.5,79.0,75.1,72.7,99,80,56,30.16,29.99,16,6,18,0.12
2013-7-19,89.6,81.3,67.5,76.6,72.5,64.8,99,76,56,29.99,29.76,41,15,42,3.84
2013-7-20,85.1,74.5,64.9,70.7,64.6,56.8,99,75,41,29.94,29.76,22,7,26,4.62
2013-7-21,79.2,70.0,61.7,65.3,61.7,58.6,98,76,52,30.04,29.94,11,4,12,0.00
2013-7-22,79.9,69.2,57.7,67.5,62.7,57.4,99,81,58,30.03,29.81,14,5,14,0.00
2013-7-23,82.2,74.9,65.7,71.2,67.3,63.0,99,79,55,29.82,29.66,20,8,23,0.17
2013-8-14,-200.0,0.0,200.0,-99.9,-99.9,-99.9,0,0,100,0.00,40.00,0,-999,0,0.00
2013-8-16,80.1,64.9,54.9,58.6,52.8,-99.9,98,72,46,29.59,29.56,10,-23,10,0.00
2013-8-17,86.2,67.5,52.0,62.4,55.4,49.8,99,71,33,29.68,29.59,10,2,11,0.04
2013-8-18,89.6,69.1,52.9,64.9,58.1,52.3,99,73,34,29.63,29.51,8,2,9,0.00
2013-8-20,84.6,76.1,60.1,68.0,64.2,59.7,99,69,47,29.54,29.47,17,7,17,0.00
2013-8-21,87.4,73.4,59.4,68.4,63.7,59.0,99,75,46,29.56,29.43,14,4,14,0.00
2013-8-22,84.6,72.9,60.8,74.5,66.9,56.7,99,82,59,29.44,29.33,17,5,25,0.34
2013-8-23,77.0,65.1,53.1,67.1,55.6,51.4,99,75,41,29.59,29.40,15,4,16,0.00
2013-8-24,86.7,64.5,48.2,61.3,53.8,48.0,99,73,34,29.74,29.59,12,3,17,0.00
2013-8-25,83.5,67.8,48.2,64.2,55.4,48.0,99,69,36,29.71,29.53,20,6,21,0.00
2013-8-26,80.1,73.1,69.6,72.5,66.6,63.7,98,80,74,29.55,29.39,24,9,24,0.91
2013-8-27,86.5,78.8,69.1,74.5,72.7,68.7,99,82,63,29.34,29.28,12,6,14,1.59
2013-8-28,86.4,74.6,66.6,73.8,70.5,66.2,99,88,63,29.37,29.26,12,4,14,0.18
2013-8-29,88.9,74.3,61.7,77.2,66.6,61.2,99,80,48,29.46,29.36,11,2,13,0.01
2013-8-30,84.7,74.0,63.0,72.5,67.7,62.1,99,83,54,29.41,29.16,14,5,20,0.00
2013-9-1,86.7,75.8,69.3,73.8,70.6,68.9,99,85,58,29.23,29.16,12,5,13,0.15
2013-9-2,81.7,71.2,63.3,73.4,66.2,55.2,99,85,64,29.20,29.11,21,7,21,0.01
2013-9-3,68.7,63.1,59.2,59.2,56.9,54.3,88,80,70,29.30,29.18,17,8,20,0.00
2013-9-5,66.6,58.4,44.1,52.9,43.9,39.6,98,62,41,29.60,29.52,19,7,20,0.04
2013-9-6,73.6,66.2,44.1,52.2,47.6,43.5,98,52,43,29.65,29.57,11,6,12,0.00
2013-9-7,66.2,62.9,53.8,65.1,59.6,51.8,97,89,74,29.42,29.26,18,5,21,0.31
2013-9-8,70.9,64.9,53.1,63.5,49.0,44.4,95,58,42,29.48,29.31,21,9,21,0.01
2013-9-9,73.2,67.2,51.3,64.8,60.1,48.7,91,79,55,29.46,29.33,9,4,14,0.00
2013-9-10,88.2,81.9,71.4,73.8,71.4,68.9,93,71,57,29.41,29.29,28,14,31,0.18
2013-9-11,89.6,80.1,71.4,73.8,71.6,68.9,97,76,55,29.43,29.31,23,10,23,0.41
2013-9-12,74.8,68.8,59.9,70.7,65.6,55.9,99,90,75,29.36,29.15,15,6,24,0.22
2013-9-13,60.1,58.3,55.0,56.8,54.8,51.4,90,88,85,29.21,29.18,12,7,14,0.00
2013-9-14,70.5,58.0,48.9,51.6,42.0,25.3,98,62,23,29.49,29.46,12,5,13,0.00
2013-9-15,68.5,57.0,45.9,56.1,50.3,42.8,98,79,57,29.50,29.44,18,5,18,0.08
2013-9-16,61.5,51.6,47.8,53.1,49.3,43.3,99,92,54,29.66,29.43,17,5,18,0.05
2013-9-18,79.9,67.6,51.4,54.7,48.6,40.6,99,55,26,29.59,29.49,13,4,13,0.00
2013-9-19,79.2,63.4,56.1,60.3,57.6,55.8,99,84,49,29.44,29.38,12,2,12,0.00
2013-9-20,56.5,55.8,54.9,56.1,55.2,54.0,99,98,97,29.39,29.38,1,0,2,0.00
2013-9-22,55.6,54.0,52.3,44.8,43.3,41.9,72,67,63,29.31,29.28,17,12,125,0.00
2013-9-23,62.4,55.9,43.5,44.8,41.3,38.5,97,60,43,29.52,29.48,14,6,15,0.00
2013-9-24,69.1,57.5,41.5,53.2,45.1,33.3,99,67,29,29.49,29.36,11,4,11,0.00
2013-9-25,73.4,53.2,37.0,55.0,45.1,36.3,99,79,36,29.39,29.32,13,2,13,0.00
2013-9-26,76.1,55.7,38.8,55.8,47.8,38.7,99,79,44,29.52,29.35,11,2,13,0.00
2013-9-27,72.0,57.7,44.6,61.2,51.7,43.9,99,83,56,29.63,29.51,14,4,16,0.00
2013-10-1,71.4,64.1,55.2,65.3,60.5,54.3,99,89,67,29.41,29.38,10,3,10,0.00
2013-10-2,78.4,67.2,50.4,64.6,61.6,50.0,99,83,57,29.47,29.31,14,7,14,0.00
2013-10-3,75.6,59.7,42.8,59.5,49.1,42.3,99,73,35,29.49,29.39,9,2,9,0.00
2013-10-4,71.8,65.4,59.5,69.1,63.8,54.9,99,95,81,29.42,29.36,9,4,9,0.01
2013-10-5,65.1,64.0,63.1,62.4,61.2,60.4,92,90,88,29.44,29.44,9,7,9,0.00
2013-12-20,40.5,40.0,39.9,37.4,36.8,36.7,89,88,88,29.07,29.04,0,0,0,0.00
2013-12-21,51.6,43.4,34.7,50.5,40.8,30.7,96,91,84,29.14,28.99,1,0,1,0.00
2013-12-22,41.2,36.5,33.6,39.6,33.3,29.8,95,88,85,29.24,28.86,1,0,1,0.00
2013-12-23,38.7,34.8,26.2,35.4,27.7,-99.9,89,77,16,29.54,29.22,1,-8,1,0.06
2013-12-24,27.9,21.7,18.5,19.4,0.9,-99.9,71,56,16,29.75,29.46,0,-113,0,0.00
2013-12-25,25.5,19.0,12.4,12.7,5.4,-2.4,63,55,50,29.76,29.44,0,0,1,0.00
2013-12-26,31.1,28.1,24.1,25.2,18.3,-13.9,82,67,16,29.54,29.31,0,0,1,0.00
2013-12-27,33.6,29.3,23.9,27.0,21.2,11.7,80,72,59,29.54,29.34,1,0,1,0.00
2013-12-28,41.5,38.0,33.8,34.3,30.4,25.7,80,74,66,29.38,29.21,1,0,1,0.00
2013-12-29,44.1,40.8,34.9,35.4,30.8,23.9,75,68,55,29.20,28.91,0,0,114,0.00
2013-12-30,34.5,25.9,20.8,23.5,11.9,5.5,64,55,50,29.47,29.07,0,0,0,0.00
2013-12-31,26.2,20.3,16.7,13.5,7.0,-13.9,69,56,16,29.49,29.22,0,0,1,0.00
2014-1-1,23.0,19.5,15.8,9.0,4.6,-1.1,58,52,46,29.65,29.49,0,0,0,0.00
2014-1-2,19.0,16.0,11.5,6.6,3.9,-0.8,65,58,55,29.53,29.25,5,0,9,0.00